Ganser Bar, California
Current Conditions -  °F | °C
As of 12:53 AM on Friday 19 Dec 2014 (Local Time) from KOVE Reporting Station
Moderate Rain Moderate Rain  
Wind Chill: 53°   Ceiling: 4600
Heat Index: 53°   Visibility: 6mi
Dew Point: 47°   Wind: 5mph
Humidity: 80%   Direction: 150°SSE
Pressure: 30.16"   Gusts: NA
Location:  40.0464°N, 121.282°W
Report Text: KOVE 190853Z AUTO 15004KT 6SM RA OVC046 12/08 A3016 RMK AO2 RAB41 SLP216 P0002 60002 T01170083 58001
Loading
Personal Weather Stations






























Interactive Weather Map New forecast layout! Learn more

10-Day Weather Forecast

Advertisements
Track Severe Weather on mobile